createdAt,value
2019-04-22T00:01:50.394Z,14.13
2019-04-22T00:04:32.200Z,14.50
2019-04-22T00:07:15.902Z,15.78
2019-04-22T00:09:53.453Z,16.93
2019-04-22T00:14:46.563Z,13.90
2019-04-22T00:17:30.665Z,17.52
2019-04-22T00:19:57.582Z,14.85
2019-04-22T00:22:27.404Z,14.87
2019-04-22T00:25:05.551Z,12.60
2019-04-22T00:27:35.803Z,14.28
2019-04-22T00:30:07.274Z,16.82
2019-04-22T00:32:36.567Z,16.87
2019-04-22T00:35:07.103Z,14.18
2019-04-22T00:37:43.718Z,14.85
2019-04-22T00:40:17.734Z,20.88
2019-04-22T00:42:46.947Z,17.62
2019-04-22T00:45:19.413Z,17.98
2019-04-22T00:47:43.833Z,18.20
2019-04-22T00:52:59.909Z,20.20
2019-04-22T00:55:24.781Z,17.67
2019-04-22T00:57:56.332Z,20.43
2019-04-22T01:00:27.785Z,19.07
2019-04-22T01:03:02.715Z,20.62
2019-04-22T01:05:32.672Z,20.33
2019-04-22T01:08:09.604Z,21.17
2019-04-22T01:10:32.398Z,20.65
2019-04-22T01:13:04.704Z,17.95
2019-04-22T01:15:33.906Z,20.02
2019-04-22T01:18:08.264Z,18.60
2019-04-22T01:23:03.838Z,18.98
2019-04-22T01:25:39.233Z,18.50
2019-04-22T01:28:00.914Z,21.10
2019-04-22T01:30:28.776Z,19.30
2019-04-22T01:32:53.906Z,22.65
2019-04-22T01:35:35.838Z,18.20
2019-04-22T01:38:07.911Z,23.52
2019-04-22T01:40:58.615Z,25.48
2019-04-22T01:43:25.014Z,20.23
2019-04-22T01:45:54.479Z,26.90
2019-04-22T01:48:26.852Z,21.97
2019-04-22T01:50:54.783Z,26.02
2019-04-22T01:53:27.133Z,22.10
2019-04-22T01:55:59.053Z,27.70
2019-04-22T01:58:23.454Z,22.67
2019-04-22T02:01:00.989Z,27.82
2019-04-22T02:03:33.323Z,26.00
2019-04-22T02:06:12.160Z,21.75
2019-04-22T02:08:45.399Z,27.10
2019-04-22T02:11:09.355Z,24.85
2019-04-22T02:13:36.644Z,23.67
2019-04-22T02:16:12.547Z,24.05
2019-04-22T02:18:50.710Z,22.32
2019-04-22T02:21:09.319Z,23.30
2019-04-22T02:23:47.085Z,25.93
2019-04-22T02:26:31.523Z,24.10
2019-04-22T02:28:55.976Z,25.43
2019-04-22T02:31:25.852Z,27.07
2019-04-22T02:51:30.104Z,29.32
2019-04-22T02:56:31.488Z,30.52
2019-04-22T03:01:36.549Z,27.65
2019-04-22T03:09:12.571Z,28.55
2019-04-22T03:11:47.653Z,29.77
2019-04-22T03:14:22.661Z,28.55
2019-04-22T03:21:46.944Z,28.15
2019-04-22T03:24:23.596Z,28.40
2019-04-22T03:27:00.691Z,33.83
2019-04-22T03:29:44.586Z,31.37
2019-04-22T03:37:32.375Z,32.20
2019-04-22T03:40:03.979Z,32.05
2019-04-22T03:42:09.780Z,31.00
2019-04-22T03:44:54.254Z,31.62
2019-04-22T03:47:33.593Z,36.17
2019-04-22T03:49:56.028Z,34.37
2019-04-22T03:57:48.939Z,30.45
2019-04-22T04:04:49.524Z,31.05
2019-04-22T04:07:40.558Z,30.95
2019-04-22T04:12:28.481Z,33.23
2019-04-22T04:17:36.895Z,26.20
2019-04-22T04:27:53.617Z,33.10
2019-04-22T04:35:23.899Z,30.70
2019-04-22T04:37:52.116Z,27.52
2019-04-22T04:40:25.072Z,30.65
2019-04-22T04:50:22.695Z,29.55
2019-04-22T04:56:29.681Z,26.77
2019-04-22T04:58:10.021Z,29.37
2019-04-22T05:02:58.386Z,27.90
2019-04-22T05:05:45.058Z,30.00
2019-04-22T05:10:44.879Z,29.40
2019-04-22T05:13:01.139Z,29.10
2019-04-22T05:20:42.966Z,26.77
2019-04-22T05:23:06.963Z,27.47
2019-04-22T05:25:53.505Z,27.87
2019-04-22T05:28:06.820Z,25.80
2019-04-22T05:30:58.979Z,26.45
2019-04-22T05:33:10.167Z,28.97
2019-04-22T05:35:37.858Z,23.90
2019-04-22T05:40:36.003Z,24.60
2019-04-22T05:43:16.348Z,23.20
2019-04-22T05:45:47.341Z,31.25
2019-04-22T05:48:23.147Z,25.85
2019-04-22T05:50:47.345Z,28.15
2019-04-22T05:53:14.950Z,26.93
2019-04-22T05:55:53.846Z,25.40
2019-04-22T05:58:22.517Z,24.60
2019-04-22T06:03:42.471Z,25.27
2019-04-22T06:06:12.017Z,21.50
2019-04-22T06:08:43.995Z,24.70
2019-04-22T06:11:17.149Z,26.90
2019-04-22T06:13:41.722Z,25.68
2019-04-22T06:16:18.229Z,23.63
2019-04-22T06:18:46.993Z,20.60
2019-04-22T06:21:22.310Z,24.07
2019-04-22T06:24:01.891Z,21.10
2019-04-22T06:26:31.194Z,21.20
2019-04-22T06:28:54.675Z,21.30
2019-04-22T06:31:28.152Z,21.97
2019-04-22T06:34:07.234Z,23.87
2019-04-22T06:36:29.532Z,23.67
2019-04-22T06:38:55.939Z,20.40
2019-04-22T06:41:33.271Z,24.60
2019-04-22T06:44:04.760Z,21.00
2019-04-22T06:46:37.835Z,22.42
2019-04-22T06:49:03.015Z,21.73
2019-04-22T06:51:32.486Z,20.62
2019-04-22T06:54:03.402Z,20.10
2019-04-22T06:56:41.309Z,20.23
2019-04-22T06:59:09.755Z,24.90
2019-04-22T07:01:55.059Z,20.37
2019-04-22T07:04:23.229Z,19.90
2019-04-22T07:06:44.807Z,20.40
2019-04-22T07:11:48.296Z,21.10
2019-04-22T07:14:09.295Z,23.50
2019-04-22T07:16:43.574Z,21.35
2019-04-22T07:19:20.656Z,22.07
2019-04-22T07:21:53.557Z,21.17
2019-04-22T07:26:50.792Z,21.17
2019-04-22T07:29:41.655Z,23.03
2019-04-22T07:31:56.377Z,18.57
2019-04-22T07:34:33.369Z,20.68
2019-04-22T07:37:10.988Z,24.83
2019-04-22T07:39:30.824Z,17.57
2019-04-22T07:42:10.721Z,18.90
2019-04-22T07:44:52.064Z,20.20
2019-04-22T07:47:15.205Z,21.50
2019-04-22T07:49:39.115Z,17.40
2019-04-22T07:52:09.755Z,17.65
2019-04-22T07:54:41.689Z,20.85
2019-04-22T08:00:05.554Z,18.50
2019-04-22T08:02:16.076Z,17.57
2019-04-22T08:05:03.720Z,18.20
2019-04-22T08:07:22.546Z,15.75
2019-04-22T08:12:19.128Z,18.32
2019-04-22T08:14:52.142Z,19.52
2019-04-22T08:17:50.853Z,17.50
2019-04-22T08:19:56.058Z,20.10
2019-04-22T08:22:21.394Z,17.87
2019-04-22T08:24:54.017Z,18.25
2019-04-22T08:27:22.571Z,15.40
2019-04-22T08:32:39.171Z,13.43
2019-04-22T08:35:11.262Z,15.73
2019-04-22T08:40:15.467Z,17.80
2019-04-22T08:42:53.365Z,15.98
2019-04-22T08:45:28.592Z,14.00
2019-04-22T08:47:41.587Z,15.03
2019-04-22T08:52:40.603Z,14.10
2019-04-22T08:55:20.841Z,16.05
2019-04-22T08:58:07.217Z,16.17
2019-04-22T09:00:17.371Z,13.30
2019-04-22T09:02:52.129Z,14.60
2019-04-22T09:05:37.115Z,14.67
2019-04-22T09:08:04.972Z,11.90
2019-04-22T09:10:24.388Z,11.22
2019-04-22T09:13:02.493Z,12.57
2019-04-22T09:29:30.393Z,12.43
2019-04-22T09:32:03.560Z,11.50
2019-04-22T09:34:28.255Z,11.28
2019-04-22T09:37:05.987Z,8.53
2019-04-22T09:42:21.930Z,9.35
2019-04-22T09:44:36.570Z,9.30
2019-04-22T09:47:06.210Z,10.90
2019-04-22T09:49:44.546Z,9.05
2019-04-22T09:54:49.567Z,8.73
2019-04-22T09:57:12.007Z,9.50
2019-04-22T09:59:43.594Z,9.73
2019-04-22T10:04:48.266Z,10.70
2019-04-22T10:07:15.878Z,11.70
2019-04-22T10:12:19.251Z,9.40
2019-04-22T10:14:49.485Z,8.30
2019-04-22T10:17:23.771Z,11.00
2019-04-22T10:19:57.874Z,10.28
2019-04-22T10:22:27.979Z,12.93
2019-04-22T10:24:56.890Z,9.15
2019-04-22T10:27:26.141Z,10.95
2019-04-22T10:30:08.874Z,11.33
2019-04-22T10:32:27.935Z,13.25
2019-04-22T10:34:48.029Z,10.05
2019-04-22T10:37:17.017Z,12.95
2019-04-22T10:39:52.967Z,11.15
2019-04-22T10:42:17.398Z,10.20
2019-04-22T10:44:48.483Z,14.13
2019-04-22T10:47:20.070Z,20.55
2019-04-22T10:49:49.618Z,13.10
2019-04-22T10:52:19.143Z,14.93
2019-04-22T10:54:49.494Z,11.05
2019-04-22T10:57:20.129Z,14.00
2019-04-22T10:59:50.384Z,15.00
2019-04-22T11:02:21.490Z,10.90
2019-04-22T11:04:52.403Z,10.90
2019-04-22T11:07:31.090Z,10.88
2019-04-22T11:10:02.399Z,14.80
2019-04-22T11:12:28.292Z,13.05
2019-04-22T11:14:55.963Z,14.07
2019-04-22T11:17:26.451Z,10.80
2019-04-22T11:19:57.459Z,9.63
2019-04-22T11:22:31.328Z,10.53
2019-04-22T11:24:59.814Z,9.25
2019-04-22T11:27:30.871Z,9.83
2019-04-22T11:30:01.841Z,10.83
2019-04-22T11:32:32.766Z,11.93
2019-04-22T11:35:03.664Z,19.17
2019-04-22T11:37:34.782Z,11.30
2019-04-22T11:40:15.768Z,11.00
2019-04-22T11:42:36.394Z,14.25
2019-04-22T11:45:06.297Z,10.47
2019-04-22T11:47:37.251Z,10.20
2019-04-22T11:50:08.078Z,10.95
2019-04-22T11:52:37.699Z,8.33
2019-04-22T11:55:08.689Z,9.20
2019-04-22T11:57:39.217Z,10.80
2019-04-22T12:00:10.649Z,10.15
2019-04-22T12:02:41.025Z,9.25
2019-04-22T12:05:12.279Z,6.97
2019-04-22T12:07:42.910Z,7.60
2019-04-22T12:10:22.830Z,9.85
2019-04-22T12:12:47.756Z,13.40
2019-04-22T12:15:16.909Z,10.05
2019-04-22T12:17:46.553Z,10.03
2019-04-22T12:20:18.409Z,13.10
2019-04-22T12:22:49.164Z,12.43
2019-04-22T12:25:31.864Z,9.83
2019-04-22T12:27:52.832Z,7.30
2019-04-22T12:30:23.638Z,13.93
2019-04-22T12:32:54.554Z,12.50
2019-04-22T12:35:26.289Z,10.18
2019-04-22T12:38:01.521Z,16.07
2019-04-22T12:40:39.518Z,8.68
2019-04-22T12:42:59.474Z,12.68
2019-04-22T12:45:30.080Z,11.10
2019-04-22T12:48:00.066Z,12.37
2019-04-22T12:50:33.860Z,8.93
2019-04-22T12:53:05.226Z,10.68
2019-04-22T12:55:32.422Z,10.98
2019-04-22T12:58:02.838Z,9.80
2019-04-22T13:00:34.331Z,14.20
2019-04-22T13:03:05.226Z,8.38
2019-04-22T13:05:35.321Z,7.35
2019-04-22T13:08:05.661Z,11.33
2019-04-22T13:10:48.679Z,6.83
2019-04-22T13:13:07.205Z,10.68
2019-04-22T13:15:37.043Z,6.35
2019-04-22T13:18:16.940Z,10.82
2019-04-22T13:20:38.672Z,7.83
2019-04-22T13:23:09.501Z,13.37
2019-04-22T13:25:40.885Z,8.98
2019-04-22T13:28:13.193Z,11.83
2019-04-22T13:30:44.341Z,10.72
2019-04-22T13:33:14.854Z,9.63
2019-04-22T13:35:45.730Z,11.57
2019-04-22T13:38:17.157Z,7.85
2019-04-22T13:41:00.648Z,9.25
2019-04-22T13:43:19.156Z,10.48
2019-04-22T13:45:49.866Z,7.22
2019-04-22T13:48:38.198Z,11.78
2019-04-22T13:51:24.077Z,8.38
2019-04-22T13:54:13.693Z,8.85
2019-04-22T13:56:15.571Z,8.35
2019-04-22T13:58:40.974Z,10.23
2019-04-22T14:01:00.706Z,11.90
2019-04-22T14:03:52.295Z,11.30
2019-04-22T14:06:22.683Z,10.40
2019-04-22T14:08:53.426Z,9.30
2019-04-22T14:11:34.556Z,7.92
2019-04-22T14:13:54.284Z,14.83
2019-04-22T14:16:24.818Z,9.78
2019-04-22T14:18:55.914Z,11.80
2019-04-22T14:21:27.021Z,9.13
2019-04-22T14:23:56.602Z,13.37
2019-04-22T14:26:28.387Z,6.95
2019-04-22T14:28:57.608Z,8.10
2019-04-22T14:31:28.505Z,9.98
2019-04-22T14:34:01.820Z,8.93
2019-04-22T14:36:29.795Z,7.00
2019-04-22T14:38:59.738Z,8.80
2019-04-22T14:41:42.826Z,7.75
2019-04-22T14:45:06.616Z,11.20
2019-04-22T14:47:05.731Z,10.48
2019-04-22T14:49:31.528Z,8.60
2019-04-22T14:52:02.291Z,8.23
2019-04-22T14:54:24.254Z,9.33
2019-04-22T14:56:38.290Z,12.63
2019-04-22T14:59:09.188Z,7.20
2019-04-22T15:01:41.430Z,5.83
2019-04-22T15:04:10.976Z,11.90
2019-04-22T15:06:43.467Z,11.05
2019-04-22T15:09:12.214Z,6.00
2019-04-22T15:11:54.820Z,5.65
2019-04-22T15:14:13.013Z,8.20
2019-04-22T15:17:11.084Z,8.03
2019-04-22T15:19:49.730Z,5.70
2019-04-22T15:22:20.797Z,8.90
2019-04-22T15:24:50.488Z,8.63
2019-04-22T15:27:20.326Z,11.97
2019-04-22T15:29:51.621Z,5.53
2019-04-22T15:32:21.313Z,13.40
2019-04-22T15:34:51.156Z,6.03
2019-04-22T15:37:22.207Z,8.97
2019-04-22T15:39:53.811Z,10.60
2019-04-22T15:42:28.858Z,4.83
2019-04-22T15:44:55.850Z,8.50
2019-04-22T15:47:26.905Z,10.78
2019-04-22T15:49:58.353Z,8.33
2019-04-22T15:52:31.957Z,11.05
2019-04-22T15:55:00.660Z,4.80
2019-04-22T15:57:30.835Z,9.83
2019-04-22T16:00:14.655Z,6.25
2019-04-22T16:02:31.858Z,7.72
2019-04-22T16:05:02.726Z,7.00
2019-04-22T16:07:33.871Z,13.38
2019-04-22T16:10:05.889Z,10.90
2019-04-22T16:12:45.560Z,4.60
2019-04-22T16:15:09.604Z,5.10
2019-04-22T16:17:38.501Z,11.60
2019-04-22T16:20:09.112Z,7.28
2019-04-22T16:22:57.092Z,6.17
2019-04-22T16:25:45.240Z,6.80
2019-04-22T16:28:15.553Z,6.55
2019-04-22T16:30:45.505Z,5.05
2019-04-22T16:33:15.333Z,5.57
2019-04-22T16:35:45.058Z,10.03
2019-04-22T16:38:15.120Z,6.53
2019-04-22T16:40:45.058Z,8.75
2019-04-22T16:43:14.643Z,5.10
2019-04-22T16:45:45.493Z,7.22
2019-04-22T16:48:16.063Z,3.90
2019-04-22T16:50:48.652Z,6.85
2019-04-22T16:53:16.987Z,16.80
2019-04-22T16:55:46.678Z,11.45
2019-04-22T16:58:18.799Z,16.80
2019-04-22T17:00:49.620Z,10.00
2019-04-22T17:03:38.724Z,12.58
2019-04-22T17:06:25.601Z,6.17
2019-04-22T17:08:55.400Z,4.57
2019-04-22T17:11:25.601Z,2.20
2019-04-22T17:13:55.348Z,5.85
2019-04-22T17:16:26.257Z,4.40
2019-04-22T17:18:56.471Z,11.20
2019-04-22T17:21:26.010Z,5.40
2019-04-22T17:23:55.967Z,27.20
2019-04-22T17:26:26.476Z,2.00
2019-04-22T17:28:57.583Z,3.60
2019-04-22T17:31:28.862Z,4.25
2019-04-22T17:33:58.992Z,6.37
2019-04-22T17:36:29.825Z,6.90
2019-04-22T17:39:14.592Z,4.58
2019-04-22T17:41:53.968Z,7.50
2019-04-22T17:44:41.423Z,4.30
2019-04-22T17:47:04.931Z,3.08
2019-04-22T17:50:08.189Z,2.90
2019-04-22T17:54:50.161Z,4.00
2019-04-22T17:57:23.951Z,6.92
2019-04-22T17:59:50.533Z,6.00
2019-04-22T18:02:24.929Z,5.85
2019-04-22T18:04:46.117Z,8.00
2019-04-22T18:10:24.215Z,4.40
2019-04-22T18:12:38.567Z,3.80
2019-04-22T18:15:04.006Z,5.72
2019-04-22T18:17:35.511Z,2.53
2019-04-22T18:19:58.255Z,9.57
2019-04-22T18:22:29.371Z,2.40
2019-04-22T18:25:04.245Z,3.20
2019-04-22T18:30:03.954Z,2.53
2019-04-22T18:32:42.422Z,3.50
2019-04-22T18:35:11.477Z,3.10
2019-04-22T18:37:43.778Z,11.63
2019-04-22T18:40:15.118Z,3.20
2019-04-22T18:42:53.567Z,5.47
2019-04-22T18:45:35.808Z,8.03
2019-04-22T18:47:43.906Z,4.43
2019-04-22T18:50:30.711Z,2.50
2019-04-22T18:53:20.200Z,5.47
2019-04-22T18:55:41.412Z,5.10
2019-04-22T18:58:09.065Z,3.58
2019-04-22T19:00:34.235Z,5.67
2019-04-22T19:03:13.494Z,3.10
2019-04-22T19:05:55.810Z,7.25
2019-04-22T19:08:28.884Z,4.30
2019-04-22T19:11:04.979Z,13.93
2019-04-22T19:16:17.207Z,4.13
2019-04-22T19:18:33.643Z,3.90
2019-04-22T19:21:07.942Z,5.07
2019-04-22T19:23:31.948Z,5.07
2019-04-22T19:26:08.316Z,7.37
2019-04-22T19:28:41.885Z,4.50
2019-04-22T19:31:13.792Z,8.30
2019-04-22T19:33:44.443Z,8.93
2019-04-22T19:36:14.671Z,4.20
2019-04-22T19:38:31.265Z,4.07
2019-04-22T19:41:23.153Z,6.33
2019-04-22T19:43:46.861Z,9.00
2019-04-22T19:46:16.732Z,5.73
2019-04-22T19:48:50.128Z,7.95
2019-04-22T19:51:23.619Z,10.70
2019-04-22T19:53:51.315Z,9.55
2019-04-22T19:56:17.503Z,9.93
2019-04-22T19:58:47.694Z,7.92
2019-04-22T20:01:44.108Z,9.40
2019-04-22T20:04:47.984Z,4.77
2019-04-22T20:07:08.505Z,5.65
2019-04-22T20:09:47.852Z,7.00
2019-04-22T20:12:18.982Z,9.20
2019-04-22T20:14:48.102Z,8.00
2019-04-22T20:17:24.487Z,8.60
2019-04-22T20:19:55.343Z,7.03
2019-04-22T20:22:17.680Z,8.30
2019-04-22T20:24:43.497Z,7.90
2019-04-22T20:27:28.525Z,11.33
2019-04-22T20:30:02.392Z,6.60
2019-04-22T20:32:26.410Z,10.23
2019-04-22T20:35:03.011Z,14.07
2019-04-22T20:37:35.564Z,8.97
2019-04-22T20:40:02.424Z,7.50
2019-04-22T20:45:11.815Z,5.70
2019-04-22T20:47:30.480Z,9.80
2019-04-22T20:50:05.387Z,15.43
2019-04-22T20:52:50.238Z,7.40
2019-04-22T20:55:07.990Z,17.27
2019-04-22T20:57:50.029Z,11.60
2019-04-22T21:00:11.516Z,9.77
2019-04-22T21:02:38.808Z,9.67
2019-04-22T21:05:03.251Z,15.00
2019-04-22T21:07:47.925Z,8.90
2019-04-22T21:10:17.282Z,8.15
2019-04-22T21:12:38.663Z,13.43
2019-04-22T21:15:29.939Z,16.40
2019-04-22T21:17:53.501Z,6.90
2019-04-22T21:20:33.404Z,13.13
2019-04-22T21:22:58.213Z,9.35
2019-04-22T21:25:20.575Z,15.75
2019-04-22T21:28:08.099Z,10.38
2019-04-22T21:30:31.995Z,11.60
2019-04-22T21:32:58.311Z,9.03
2019-04-22T21:35:48.149Z,7.65
2019-04-22T21:38:08.436Z,11.25
2019-04-22T21:40:38.799Z,13.13
2019-04-22T21:43:12.310Z,8.10
2019-04-22T21:45:31.035Z,14.87
2019-04-22T21:48:20.595Z,9.55
2019-04-22T21:50:50.188Z,7.10
2019-04-22T21:53:22.745Z,10.50
2019-04-22T21:55:58.538Z,19.37
2019-04-22T21:58:24.516Z,17.95
2019-04-22T22:01:14.431Z,14.83
2019-04-22T22:03:38.144Z,15.98
2019-04-22T22:06:04.483Z,14.70
2019-04-22T22:08:45.767Z,13.15
2019-04-22T22:11:13.373Z,17.52
2019-04-22T22:13:48.794Z,14.03
2019-04-22T22:16:12.808Z,15.50
2019-04-22T22:18:52.920Z,11.30
2019-04-22T22:21:42.104Z,12.40
2019-04-22T22:23:55.883Z,16.27
2019-04-22T22:26:15.252Z,10.32
2019-04-22T22:31:28.633Z,9.30
2019-04-22T22:33:58.010Z,9.98
2019-04-22T22:36:26.401Z,12.78
2019-04-22T22:38:56.151Z,14.93
2019-04-22T22:41:10.133Z,8.95
2019-04-22T22:43:45.321Z,11.63
2019-04-22T22:46:24.692Z,10.40
2019-04-22T22:49:05.133Z,10.50
2019-04-22T22:51:39.886Z,7.95
2019-04-22T22:54:06.358Z,13.78
2019-04-22T22:56:42.374Z,7.67
2019-04-22T22:59:08.163Z,15.13
2019-04-22T23:01:39.698Z,9.68
2019-04-22T23:04:21.046Z,9.78
2019-04-22T23:06:48.379Z,12.73
2019-04-22T23:09:15.399Z,12.13
2019-04-22T23:14:23.348Z,10.05
2019-04-22T23:16:37.853Z,11.88
2019-04-22T23:19:02.233Z,10.93
2019-04-22T23:21:39.707Z,8.30
2019-04-22T23:24:37.795Z,11.18
2019-04-22T23:27:19.340Z,10.30
2019-04-22T23:30:06.432Z,10.85
2019-04-22T23:32:38.856Z,13.35
2019-04-22T23:35:22.918Z,13.05
2019-04-22T23:37:52.635Z,9.93
2019-04-22T23:43:00.204Z,10.32
2019-04-22T23:45:33.264Z,9.80
2019-04-22T23:48:00.935Z,10.88
2019-04-22T23:50:38.877Z,12.70
2019-04-22T23:53:42.718Z,13.65
2019-04-22T23:56:01.747Z,14.85
2019-04-22T23:58:47.665Z,12.33
